sensor_id;sensor_type;location;lat;lon;timestamp;P1;durP1;ratioP1;P2;durP2;ratioP2
71387;SDS011;59201;59.902;10.520;2022-08-21T02:57:33;5.67;;;1.50;;
71387;SDS011;59201;59.902;10.520;2022-08-21T03:07:28;5.55;;;1.63;;
71387;SDS011;59201;59.902;10.520;2022-08-21T03:37:52;4.53;;;1.50;;
71387;SDS011;59201;59.902;10.520;2022-08-21T03:40:48;8.45;;;2.17;;
71387;SDS011;59201;59.902;10.520;2022-08-21T03:44:00;7.13;;;1.70;;
71387;SDS011;59201;59.902;10.520;2022-08-21T04:11:08;6.15;;;1.65;;
71387;SDS011;59201;59.902;10.520;2022-08-21T04:20:29;7.22;;;1.90;;
71387;SDS011;59201;59.902;10.520;2022-08-21T04:51:21;7.22;;;1.77;;
71387;SDS011;59201;59.902;10.520;2022-08-21T05:19:07;7.25;;;1.83;;
71387;SDS011;59201;59.902;10.520;2022-08-21T05:40:48;5.90;;;2.10;;
71387;SDS011;59201;59.902;10.520;2022-08-21T06:02:24;7.50;;;2.37;;
71387;SDS011;59201;59.902;10.520;2022-08-21T06:11:41;6.85;;;1.85;;
71387;SDS011;59201;59.902;10.520;2022-08-21T06:21:11;6.45;;;2.35;;
71387;SDS011;59201;59.902;10.520;2022-08-21T06:45:43;7.65;;;2.10;;
71387;SDS011;59201;59.902;10.520;2022-08-21T07:13:26;10.05;;;2.10;;
71387;SDS011;59201;59.902;10.520;2022-08-21T07:34:17;7.07;;;2.30;;
71387;SDS011;59201;59.902;10.520;2022-08-21T07:40:32;7.75;;;2.13;;
71387;SDS011;59201;59.902;10.520;2022-08-21T07:46:51;9.15;;;2.40;;
71387;SDS011;59201;59.902;10.520;2022-08-21T08:23:36;6.75;;;1.70;;
71387;SDS011;59201;59.902;10.520;2022-08-21T08:59:50;8.68;;;2.00;;
71387;SDS011;59201;59.902;10.520;2022-08-21T09:02:21;10.20;;;2.55;;
71387;SDS011;59201;59.902;10.520;2022-08-21T09:04:50;9.77;;;2.50;;
71387;SDS011;59201;59.902;10.520;2022-08-21T09:10:05;6.50;;;2.00;;
71387;SDS011;59201;59.902;10.520;2022-08-21T09:12:44;10.18;;;2.50;;
71387;SDS011;59201;59.902;10.520;2022-08-21T09:20:39;6.13;;;2.05;;
71387;SDS011;59201;59.902;10.520;2022-08-21T09:25:59;6.55;;;1.95;;
71387;SDS011;59201;59.902;10.520;2022-08-21T09:28:30;7.10;;;1.90;;
71387;SDS011;59201;59.902;10.520;2022-08-21T09:30:59;6.53;;;1.60;;
71387;SDS011;59201;59.902;10.520;2022-08-21T09:33:29;5.80;;;1.60;;
71387;SDS011;59201;59.902;10.520;2022-08-21T09:35:57;5.85;;;1.90;;
71387;SDS011;59201;59.902;10.520;2022-08-21T09:38:26;5.85;;;1.73;;
71387;SDS011;59201;59.902;10.520;2022-08-21T09:40:59;5.55;;;1.90;;
71387;SDS011;59201;59.902;10.520;2022-08-21T09:43:31;5.63;;;1.70;;
71387;SDS011;59201;59.902;10.520;2022-08-21T09:46:05;6.45;;;1.50;;
71387;SDS011;59201;59.902;10.520;2022-08-21T09:48:43;6.55;;;1.58;;
71387;SDS011;59201;59.902;10.520;2022-08-21T09:51:14;6.10;;;1.30;;
71387;SDS011;59201;59.902;10.520;2022-08-21T09:54:30;5.63;;;1.63;;
71387;SDS011;59201;59.902;10.520;2022-08-21T09:59:24;5.13;;;1.20;;
71387;SDS011;59201;59.902;10.520;2022-08-21T10:01:53;4.20;;;1.23;;
71387;SDS011;59201;59.902;10.520;2022-08-21T10:04:23;4.38;;;1.20;;
71387;SDS011;59201;59.902;10.520;2022-08-21T10:06:51;4.78;;;1.20;;
71387;SDS011;59201;59.902;10.520;2022-08-21T10:09:19;4.57;;;1.40;;
71387;SDS011;59201;59.902;10.520;2022-08-21T10:11:49;6.70;;;1.45;;
71387;SDS011;59201;59.902;10.520;2022-08-21T10:17:07;5.10;;;1.23;;
71387;SDS011;59201;59.902;10.520;2022-08-21T10:22:18;4.60;;;1.20;;
71387;SDS011;59201;59.902;10.520;2022-08-21T10:32:48;4.63;;;1.23;;
71387;SDS011;59201;59.902;10.520;2022-08-21T10:35:29;5.17;;;0.97;;
71387;SDS011;59201;59.902;10.520;2022-08-21T10:40:34;4.82;;;1.17;;
71387;SDS011;59201;59.902;10.520;2022-08-21T10:43:26;5.78;;;1.38;;
71387;SDS011;59201;59.902;10.520;2022-08-21T10:46:01;4.53;;;1.23;;
71387;SDS011;59201;59.902;10.520;2022-08-21T10:48:37;3.63;;;0.87;;
71387;SDS011;59201;59.902;10.520;2022-08-21T10:51:20;4.53;;;1.02;;
71387;SDS011;59201;59.902;10.520;2022-08-21T10:56:23;4.18;;;1.10;;
71387;SDS011;59201;59.902;10.520;2022-08-21T10:58:58;3.63;;;1.00;;
71387;SDS011;59201;59.902;10.520;2022-08-21T11:01:28;5.37;;;1.20;;
71387;SDS011;59201;59.902;10.520;2022-08-21T11:04:04;4.60;;;1.23;;
71387;SDS011;59201;59.902;10.520;2022-08-21T11:06:35;3.72;;;1.10;;
71387;SDS011;59201;59.902;10.520;2022-08-21T11:09:12;4.22;;;1.00;;
71387;SDS011;59201;59.902;10.520;2022-08-21T11:17:11;3.72;;;1.00;;
71387;SDS011;59201;59.902;10.520;2022-08-21T11:22:15;4.53;;;1.10;;
71387;SDS011;59201;59.902;10.520;2022-08-21T11:29:52;6.65;;;1.42;;
71387;SDS011;59201;59.902;10.520;2022-08-21T11:48:34;3.92;;;1.10;;
71387;SDS011;59201;59.902;10.520;2022-08-21T11:50:59;4.90;;;1.17;;
71387;SDS011;59201;59.902;10.520;2022-08-21T11:53:36;3.77;;;0.90;;
71387;SDS011;59201;59.902;10.520;2022-08-21T11:56:10;3.80;;;1.10;;
71387;SDS011;59201;59.902;10.520;2022-08-21T11:58:43;4.00;;;1.00;;
71387;SDS011;59201;59.902;10.520;2022-08-21T12:01:23;3.65;;;1.00;;
71387;SDS011;59201;59.902;10.520;2022-08-21T12:03:56;4.32;;;1.20;;
71387;SDS011;59201;59.902;10.520;2022-08-21T12:06:34;3.80;;;0.93;;
71387;SDS011;59201;59.902;10.520;2022-08-21T12:11:49;6.45;;;1.40;;
71387;SDS011;59201;59.902;10.520;2022-08-21T12:14:19;5.50;;;1.10;;
71387;SDS011;59201;59.902;10.520;2022-08-21T12:16:49;5.35;;;1.20;;
71387;SDS011;59201;59.902;10.520;2022-08-21T12:21:54;4.35;;;1.13;;
71387;SDS011;59201;59.902;10.520;2022-08-21T12:26:56;5.03;;;1.08;;
71387;SDS011;59201;59.902;10.520;2022-08-21T12:29:31;4.55;;;1.17;;
71387;SDS011;59201;59.902;10.520;2022-08-21T12:34:35;4.78;;;1.20;;
71387;SDS011;59201;59.902;10.520;2022-08-21T12:39:57;4.93;;;1.20;;
71387;SDS011;59201;59.902;10.520;2022-08-21T12:42:37;5.25;;;1.30;;
71387;SDS011;59201;59.902;10.520;2022-08-21T12:47:59;6.25;;;1.20;;
71387;SDS011;59201;59.902;10.520;2022-08-21T12:50:36;4.28;;;1.23;;
71387;SDS011;59201;59.902;10.520;2022-08-21T12:53:28;6.60;;;2.47;;
71387;SDS011;59201;59.902;10.520;2022-08-21T12:56:01;6.85;;;1.38;;
71387;SDS011;59201;59.902;10.520;2022-08-21T12:58:30;5.80;;;1.37;;
71387;SDS011;59201;59.902;10.520;2022-08-21T13:03:57;5.78;;;1.25;;
71387;SDS011;59201;59.902;10.520;2022-08-21T13:06:26;5.70;;;1.27;;
71387;SDS011;59201;59.902;10.520;2022-08-21T13:08:58;5.93;;;1.42;;
71387;SDS011;59201;59.902;10.520;2022-08-21T13:11:33;4.60;;;1.30;;
71387;SDS011;59201;59.902;10.520;2022-08-21T13:14:13;5.38;;;1.20;;
71387;SDS011;59201;59.902;10.520;2022-08-21T13:16:42;6.05;;;1.23;;
71387;SDS011;59201;59.902;10.520;2022-08-21T13:19:15;8.68;;;1.90;;
71387;SDS011;59201;59.902;10.520;2022-08-21T13:21:45;5.22;;;1.42;;
71387;SDS011;59201;59.902;10.520;2022-08-21T13:27:28;5.68;;;1.30;;
71387;SDS011;59201;59.902;10.520;2022-08-21T13:30:12;6.00;;;1.58;;
71387;SDS011;59201;59.902;10.520;2022-08-21T13:32:44;5.60;;;1.50;;
71387;SDS011;59201;59.902;10.520;2022-08-21T13:37:39;6.23;;;1.50;;
71387;SDS011;59201;59.902;10.520;2022-08-21T13:40:09;5.80;;;1.58;;
71387;SDS011;59201;59.902;10.520;2022-08-21T13:42:38;8.35;;;1.52;;
71387;SDS011;59201;59.902;10.520;2022-08-21T13:45:17;6.97;;;1.50;;
71387;SDS011;59201;59.902;10.520;2022-08-21T13:47:47;6.72;;;1.63;;
71387;SDS011;59201;59.902;10.520;2022-08-21T13:50:16;6.67;;;1.60;;
71387;SDS011;59201;59.902;10.520;2022-08-21T13:55:40;6.85;;;1.50;;
71387;SDS011;59201;59.902;10.520;2022-08-21T13:58:08;8.57;;;2.38;;
71387;SDS011;59201;59.902;10.520;2022-08-21T14:00:47;6.50;;;1.70;;
71387;SDS011;59201;59.902;10.520;2022-08-21T14:06:14;9.68;;;2.00;;
71387;SDS011;59201;59.902;10.520;2022-08-21T14:08:52;8.40;;;1.98;;
71387;SDS011;59201;59.902;10.520;2022-08-21T14:11:20;9.95;;;1.65;;
71387;SDS011;59201;59.902;10.520;2022-08-21T14:13:56;6.85;;;1.42;;
71387;SDS011;59201;59.902;10.520;2022-08-21T14:16:27;7.33;;;1.37;;
71387;SDS011;59201;59.902;10.520;2022-08-21T14:21:32;6.50;;;1.30;;
71387;SDS011;59201;59.902;10.520;2022-08-21T14:24:08;5.07;;;1.20;;
71387;SDS011;59201;59.902;10.520;2022-08-21T14:26:43;3.30;;;0.80;;
71387;SDS011;59201;59.902;10.520;2022-08-21T14:29:15;3.13;;;0.77;;
71387;SDS011;59201;59.902;10.520;2022-08-21T14:31:43;3.50;;;0.82;;
71387;SDS011;59201;59.902;10.520;2022-08-21T14:34:15;2.22;;;0.70;;
71387;SDS011;59201;59.902;10.520;2022-08-21T14:36:45;2.60;;;0.75;;
71387;SDS011;59201;59.902;10.520;2022-08-21T14:39:15;3.20;;;0.77;;
71387;SDS011;59201;59.902;10.520;2022-08-21T14:41:44;4.50;;;0.80;;
71387;SDS011;59201;59.902;10.520;2022-08-21T14:44:14;2.67;;;0.80;;
71387;SDS011;59201;59.902;10.520;2022-08-21T14:46:45;3.65;;;0.90;;
71387;SDS011;59201;59.902;10.520;2022-08-21T14:49:14;4.38;;;1.10;;
71387;SDS011;59201;59.902;10.520;2022-08-21T14:51:44;3.95;;;0.80;;
71387;SDS011;59201;59.902;10.520;2022-08-21T14:54:12;2.27;;;0.80;;
71387;SDS011;59201;59.902;10.520;2022-08-21T14:56:44;3.60;;;0.70;;
71387;SDS011;59201;59.902;10.520;2022-08-21T14:59:15;1.92;;;0.70;;
71387;SDS011;59201;59.902;10.520;2022-08-21T15:01:49;2.72;;;0.75;;
71387;SDS011;59201;59.902;10.520;2022-08-21T15:04:23;3.05;;;0.70;;
71387;SDS011;59201;59.902;10.520;2022-08-21T15:06:55;2.27;;;0.70;;
71387;SDS011;59201;59.902;10.520;2022-08-21T15:09:24;2.30;;;0.70;;
71387;SDS011;59201;59.902;10.520;2022-08-21T15:11:53;2.80;;;0.80;;
71387;SDS011;59201;59.902;10.520;2022-08-21T15:14:23;2.38;;;0.60;;
71387;SDS011;59201;59.902;10.520;2022-08-21T15:16:52;3.28;;;0.80;;
71387;SDS011;59201;59.902;10.520;2022-08-21T15:19:20;2.47;;;0.70;;
71387;SDS011;59201;59.902;10.520;2022-08-21T15:21:50;2.20;;;0.60;;
71387;SDS011;59201;59.902;10.520;2022-08-21T15:24:20;2.03;;;0.70;;
71387;SDS011;59201;59.902;10.520;2022-08-21T15:26:48;1.90;;;1.00;;
71387;SDS011;59201;59.902;10.520;2022-08-21T15:29:16;2.47;;;0.70;;
71387;SDS011;59201;59.902;10.520;2022-08-21T15:31:54;2.53;;;0.70;;
71387;SDS011;59201;59.902;10.520;2022-08-21T15:34:22;2.70;;;0.60;;
71387;SDS011;59201;59.902;10.520;2022-08-21T15:36:50;2.55;;;0.80;;
71387;SDS011;59201;59.902;10.520;2022-08-21T15:39:19;2.90;;;0.70;;
71387;SDS011;59201;59.902;10.520;2022-08-21T15:41:50;2.30;;;0.70;;
71387;SDS011;59201;59.902;10.520;2022-08-21T15:44:26;2.60;;;0.70;;
71387;SDS011;59201;59.902;10.520;2022-08-21T15:46:55;3.05;;;0.80;;
71387;SDS011;59201;59.902;10.520;2022-08-21T15:49:24;2.25;;;0.70;;
71387;SDS011;59201;59.902;10.520;2022-08-21T15:51:57;3.60;;;0.85;;
71387;SDS011;59201;59.902;10.520;2022-08-21T15:54:30;3.05;;;0.80;;
71387;SDS011;59201;59.902;10.520;2022-08-21T15:56:59;3.67;;;0.90;;
71387;SDS011;59201;59.902;10.520;2022-08-21T15:59:27;2.23;;;0.80;;
71387;SDS011;59201;59.902;10.520;2022-08-21T16:01:54;3.40;;;0.80;;
71387;SDS011;59201;59.902;10.520;2022-08-21T16:04:26;3.00;;;0.80;;
71387;SDS011;59201;59.902;10.520;2022-08-21T16:07:04;2.47;;;0.70;;
71387;SDS011;59201;59.902;10.520;2022-08-21T16:09:35;3.60;;;0.77;;
71387;SDS011;59201;59.902;10.520;2022-08-21T16:12:04;3.33;;;1.00;;
71387;SDS011;59201;59.902;10.520;2022-08-21T16:14:33;3.78;;;0.80;;
71387;SDS011;59201;59.902;10.520;2022-08-21T16:17:05;2.72;;;0.80;;
71387;SDS011;59201;59.902;10.520;2022-08-21T16:19:37;3.67;;;1.10;;
71387;SDS011;59201;59.902;10.520;2022-08-21T16:22:09;3.85;;;1.10;;
71387;SDS011;59201;59.902;10.520;2022-08-21T16:24:39;3.17;;;0.80;;
71387;SDS011;59201;59.902;10.520;2022-08-21T16:30:14;4.20;;;1.00;;
71387;SDS011;59201;59.902;10.520;2022-08-21T16:32:45;3.45;;;0.90;;
71387;SDS011;59201;59.902;10.520;2022-08-21T16:35:20;3.17;;;0.90;;
71387;SDS011;59201;59.902;10.520;2022-08-21T16:37:49;2.60;;;0.77;;
71387;SDS011;59201;59.902;10.520;2022-08-21T16:40:23;2.80;;;0.80;;
71387;SDS011;59201;59.902;10.520;2022-08-21T16:42:57;4.05;;;0.90;;
71387;SDS011;59201;59.902;10.520;2022-08-21T16:45:27;4.30;;;0.90;;
71387;SDS011;59201;59.902;10.520;2022-08-21T16:47:55;4.15;;;0.90;;
71387;SDS011;59201;59.902;10.520;2022-08-21T16:50:23;3.80;;;0.90;;
71387;SDS011;59201;59.902;10.520;2022-08-21T16:52:50;2.55;;;0.90;;
71387;SDS011;59201;59.902;10.520;2022-08-21T16:55:19;4.57;;;0.88;;
71387;SDS011;59201;59.902;10.520;2022-08-21T16:57:49;2.70;;;0.80;;
71387;SDS011;59201;59.902;10.520;2022-08-21T17:00:15;3.15;;;0.90;;
71387;SDS011;59201;59.902;10.520;2022-08-21T17:02:47;4.13;;;1.63;;
71387;SDS011;59201;59.902;10.520;2022-08-21T17:05:15;4.85;;;0.90;;
71387;SDS011;59201;59.902;10.520;2022-08-21T17:07:44;2.70;;;0.82;;
71387;SDS011;59201;59.902;10.520;2022-08-21T17:10:12;3.30;;;0.80;;
71387;SDS011;59201;59.902;10.520;2022-08-21T17:12:40;3.92;;;0.90;;
71387;SDS011;59201;59.902;10.520;2022-08-21T17:15:21;5.20;;;1.17;;
71387;SDS011;59201;59.902;10.520;2022-08-21T17:17:49;3.72;;;0.90;;
71387;SDS011;59201;59.902;10.520;2022-08-21T17:20:19;3.33;;;1.00;;
71387;SDS011;59201;59.902;10.520;2022-08-21T17:22:48;4.60;;;1.30;;
71387;SDS011;59201;59.902;10.520;2022-08-21T17:25:18;3.13;;;0.80;;
71387;SDS011;59201;59.902;10.520;2022-08-21T17:27:46;5.60;;;1.10;;
71387;SDS011;59201;59.902;10.520;2022-08-21T17:30:20;5.13;;;1.02;;
71387;SDS011;59201;59.902;10.520;2022-08-21T17:32:48;4.20;;;0.95;;
71387;SDS011;59201;59.902;10.520;2022-08-21T17:35:19;3.47;;;0.93;;
71387;SDS011;59201;59.902;10.520;2022-08-21T17:37:47;4.95;;;1.00;;
71387;SDS011;59201;59.902;10.520;2022-08-21T17:40:15;5.17;;;1.07;;
71387;SDS011;59201;59.902;10.520;2022-08-21T17:42:45;3.30;;;1.00;;
71387;SDS011;59201;59.902;10.520;2022-08-21T17:45:14;5.85;;;1.20;;
71387;SDS011;59201;59.902;10.520;2022-08-21T17:47:42;5.95;;;1.10;;
71387;SDS011;59201;59.902;10.520;2022-08-21T17:50:13;3.78;;;1.00;;
71387;SDS011;59201;59.902;10.520;2022-08-21T17:52:40;3.43;;;0.80;;
71387;SDS011;59201;59.902;10.520;2022-08-21T17:55:17;3.95;;;0.98;;
71387;SDS011;59201;59.902;10.520;2022-08-21T17:57:48;5.30;;;1.00;;
71387;SDS011;59201;59.902;10.520;2022-08-21T18:00:18;5.57;;;1.48;;
71387;SDS011;59201;59.902;10.520;2022-08-21T18:02:46;4.65;;;1.08;;
71387;SDS011;59201;59.902;10.520;2022-08-21T18:05:16;5.47;;;1.00;;
71387;SDS011;59201;59.902;10.520;2022-08-21T18:07:46;3.75;;;1.10;;
71387;SDS011;59201;59.902;10.520;2022-08-21T18:10:14;4.20;;;1.00;;
71387;SDS011;59201;59.902;10.520;2022-08-21T18:12:45;4.00;;;1.17;;
71387;SDS011;59201;59.902;10.520;2022-08-21T18:15:13;4.13;;;1.10;;
71387;SDS011;59201;59.902;10.520;2022-08-21T18:17:43;4.90;;;1.10;;
71387;SDS011;59201;59.902;10.520;2022-08-21T18:20:11;3.47;;;0.90;;
71387;SDS011;59201;59.902;10.520;2022-08-21T18:22:49;3.92;;;0.90;;
71387;SDS011;59201;59.902;10.520;2022-08-21T18:25:24;4.05;;;0.90;;
71387;SDS011;59201;59.902;10.520;2022-08-21T18:28:09;5.28;;;1.13;;
71387;SDS011;59201;59.902;10.520;2022-08-21T18:33:20;4.97;;;0.90;;
71387;SDS011;59201;59.902;10.520;2022-08-21T18:35:50;6.18;;;1.23;;
71387;SDS011;59201;59.902;10.520;2022-08-21T18:38:19;5.93;;;1.10;;
71387;SDS011;59201;59.902;10.520;2022-08-21T18:40:49;6.15;;;1.00;;
71387;SDS011;59201;59.902;10.520;2022-08-21T18:43:25;4.33;;;1.00;;
71387;SDS011;59201;59.902;10.520;2022-08-21T18:45:53;5.57;;;1.10;;
71387;SDS011;59201;59.902;10.520;2022-08-21T18:48:26;4.68;;;1.10;;
71387;SDS011;59201;59.902;10.520;2022-08-21T18:50:53;4.15;;;1.15;;
71387;SDS011;59201;59.902;10.520;2022-08-21T18:53:21;3.40;;;0.88;;
71387;SDS011;59201;59.902;10.520;2022-08-21T18:55:50;3.80;;;0.97;;
71387;SDS011;59201;59.902;10.520;2022-08-21T18:58:42;4.43;;;1.05;;
71387;SDS011;59201;59.902;10.520;2022-08-21T19:01:18;5.03;;;1.27;;
71387;SDS011;59201;59.902;10.520;2022-08-21T19:04:03;4.55;;;1.00;;
71387;SDS011;59201;59.902;10.520;2022-08-21T19:06:32;3.85;;;1.10;;
71387;SDS011;59201;59.902;10.520;2022-08-21T19:09:04;4.57;;;0.90;;
71387;SDS011;59201;59.902;10.520;2022-08-21T19:11:35;6.22;;;1.20;;
71387;SDS011;59201;59.902;10.520;2022-08-21T19:14:07;4.00;;;1.00;;
71387;SDS011;59201;59.902;10.520;2022-08-21T19:16:37;6.22;;;1.30;;
71387;SDS011;59201;59.902;10.520;2022-08-21T19:19:06;5.72;;;1.10;;
71387;SDS011;59201;59.902;10.520;2022-08-21T19:21:37;7.07;;;1.23;;
71387;SDS011;59201;59.902;10.520;2022-08-21T19:24:13;4.07;;;1.05;;
71387;SDS011;59201;59.902;10.520;2022-08-21T19:26:41;4.28;;;1.20;;
71387;SDS011;59201;59.902;10.520;2022-08-21T19:29:28;7.05;;;1.20;;
71387;SDS011;59201;59.902;10.520;2022-08-21T19:31:56;4.22;;;1.00;;
71387;SDS011;59201;59.902;10.520;2022-08-21T19:34:24;5.70;;;1.17;;
71387;SDS011;59201;59.902;10.520;2022-08-21T19:36:55;5.32;;;1.20;;
71387;SDS011;59201;59.902;10.520;2022-08-21T19:39:34;3.60;;;1.13;;
71387;SDS011;59201;59.902;10.520;2022-08-21T19:42:04;5.38;;;1.30;;
71387;SDS011;59201;59.902;10.520;2022-08-21T19:44:32;5.25;;;1.40;;
71387;SDS011;59201;59.902;10.520;2022-08-21T19:47:03;6.50;;;1.60;;
71387;SDS011;59201;59.902;10.520;2022-08-21T19:49:35;4.88;;;1.50;;
71387;SDS011;59201;59.902;10.520;2022-08-21T19:52:03;5.15;;;1.52;;
71387;SDS011;59201;59.902;10.520;2022-08-21T19:54:33;4.78;;;1.65;;
71387;SDS011;59201;59.902;10.520;2022-08-21T19:57:04;7.32;;;2.05;;
71387;SDS011;59201;59.902;10.520;2022-08-21T19:59:31;5.17;;;1.70;;
71387;SDS011;59201;59.902;10.520;2022-08-21T20:02:00;5.95;;;1.98;;
71387;SDS011;59201;59.902;10.520;2022-08-21T20:04:28;9.43;;;2.67;;
71387;SDS011;59201;59.902;10.520;2022-08-21T20:06:55;4.82;;;1.50;;
71387;SDS011;59201;59.902;10.520;2022-08-21T20:09:25;5.13;;;1.73;;
71387;SDS011;59201;59.902;10.520;2022-08-21T20:12:01;5.70;;;1.43;;
71387;SDS011;59201;59.902;10.520;2022-08-21T20:14:29;4.47;;;1.23;;
71387;SDS011;59201;59.902;10.520;2022-08-21T20:17:04;6.10;;;1.40;;
71387;SDS011;59201;59.902;10.520;2022-08-21T20:19:34;4.80;;;1.13;;
71387;SDS011;59201;59.902;10.520;2022-08-21T20:22:02;4.95;;;1.20;;
71387;SDS011;59201;59.902;10.520;2022-08-21T20:24:30;5.93;;;1.20;;
71387;SDS011;59201;59.902;10.520;2022-08-21T20:27:00;4.65;;;1.83;;
71387;SDS011;59201;59.902;10.520;2022-08-21T20:29:29;5.97;;;1.40;;
71387;SDS011;59201;59.902;10.520;2022-08-21T20:31:58;4.90;;;1.30;;
71387;SDS011;59201;59.902;10.520;2022-08-21T20:34:28;5.07;;;1.30;;
71387;SDS011;59201;59.902;10.520;2022-08-21T20:36:59;6.13;;;1.23;;
71387;SDS011;59201;59.902;10.520;2022-08-21T20:39:30;5.05;;;1.30;;
71387;SDS011;59201;59.902;10.520;2022-08-21T20:41:59;6.38;;;1.50;;
71387;SDS011;59201;59.902;10.520;2022-08-21T20:44:29;5.03;;;1.30;;
71387;SDS011;59201;59.902;10.520;2022-08-21T20:46:58;4.20;;;1.17;;
71387;SDS011;59201;59.902;10.520;2022-08-21T20:49:28;5.17;;;1.30;;
71387;SDS011;59201;59.902;10.520;2022-08-21T20:52:00;4.03;;;1.05;;
71387;SDS011;59201;59.902;10.520;2022-08-21T20:57:03;4.65;;;1.25;;
71387;SDS011;59201;59.902;10.520;2022-08-21T21:02:15;6.67;;;1.10;;
71387;SDS011;59201;59.902;10.520;2022-08-21T21:04:49;4.85;;;1.10;;
71387;SDS011;59201;59.902;10.520;2022-08-21T21:07:40;4.00;;;1.20;;
71387;SDS011;59201;59.902;10.520;2022-08-21T21:10:27;4.60;;;1.20;;
71387;SDS011;59201;59.902;10.520;2022-08-21T21:15:51;5.73;;;1.20;;
71387;SDS011;59201;59.902;10.520;2022-08-21T21:18:25;5.00;;;1.10;;
71387;SDS011;59201;59.902;10.520;2022-08-21T21:20:57;3.88;;;1.10;;
71387;SDS011;59201;59.902;10.520;2022-08-21T21:23:47;5.57;;;1.30;;
71387;SDS011;59201;59.902;10.520;2022-08-21T21:26:21;4.80;;;1.45;;
71387;SDS011;59201;59.902;10.520;2022-08-21T21:31:27;5.32;;;1.30;;
71387;SDS011;59201;59.902;10.520;2022-08-21T21:33:56;6.40;;;1.20;;
71387;SDS011;59201;59.902;10.520;2022-08-21T21:36:28;6.75;;;1.40;;
71387;SDS011;59201;59.902;10.520;2022-08-21T21:39:14;6.30;;;1.40;;
71387;SDS011;59201;59.902;10.520;2022-08-21T21:44:34;4.75;;;1.40;;
71387;SDS011;59201;59.902;10.520;2022-08-21T21:54:38;4.93;;;1.23;;
71387;SDS011;59201;59.902;10.520;2022-08-21T22:08:13;5.37;;;1.30;;
71387;SDS011;59201;59.902;10.520;2022-08-21T22:10:51;5.78;;;1.30;;
71387;SDS011;59201;59.902;10.520;2022-08-21T22:13:31;4.47;;;1.30;;
71387;SDS011;59201;59.902;10.520;2022-08-21T22:16:02;5.80;;;1.60;;
71387;SDS011;59201;59.902;10.520;2022-08-21T22:18:34;6.70;;;1.30;;
71387;SDS011;59201;59.902;10.520;2022-08-21T22:21:19;4.67;;;1.20;;
71387;SDS011;59201;59.902;10.520;2022-08-21T22:23:50;4.68;;;1.20;;
71387;SDS011;59201;59.902;10.520;2022-08-21T22:26:20;6.68;;;1.30;;
71387;SDS011;59201;59.902;10.520;2022-08-21T22:28:50;4.45;;;1.00;;
71387;SDS011;59201;59.902;10.520;2022-08-21T22:36:33;4.05;;;1.30;;
71387;SDS011;59201;59.902;10.520;2022-08-21T22:39:02;3.35;;;0.98;;
71387;SDS011;59201;59.902;10.520;2022-08-21T22:41:36;4.68;;;1.38;;
71387;SDS011;59201;59.902;10.520;2022-08-21T22:44:05;3.13;;;1.00;;
71387;SDS011;59201;59.902;10.520;2022-08-21T22:46:35;4.03;;;1.10;;
71387;SDS011;59201;59.902;10.520;2022-08-21T22:51:33;3.58;;;1.10;;
71387;SDS011;59201;59.902;10.520;2022-08-21T22:54:04;4.30;;;1.10;;
71387;SDS011;59201;59.902;10.520;2022-08-21T22:59:07;4.07;;;1.13;;
71387;SDS011;59201;59.902;10.520;2022-08-21T23:01:42;5.25;;;1.00;;
71387;SDS011;59201;59.902;10.520;2022-08-21T23:04:18;5.13;;;1.00;;
71387;SDS011;59201;59.902;10.520;2022-08-21T23:07:07;4.15;;;1.20;;
71387;SDS011;59201;59.902;10.520;2022-08-21T23:09:52;6.13;;;1.20;;
71387;SDS011;59201;59.902;10.520;2022-08-21T23:12:23;5.37;;;1.30;;
71387;SDS011;59201;59.902;10.520;2022-08-21T23:14:52;4.65;;;1.10;;
71387;SDS011;59201;59.902;10.520;2022-08-21T23:18:04;4.60;;;1.20;;
71387;SDS011;59201;59.902;10.520;2022-08-21T23:22:49;4.35;;;1.20;;
71387;SDS011;59201;59.902;10.520;2022-08-21T23:25:28;4.13;;;1.27;;
71387;SDS011;59201;59.902;10.520;2022-08-21T23:28:04;4.32;;;1.00;;
71387;SDS011;59201;59.902;10.520;2022-08-21T23:30:45;5.88;;;0.98;;
71387;SDS011;59201;59.902;10.520;2022-08-21T23:34:26;4.63;;;1.20;;
71387;SDS011;59201;59.902;10.520;2022-08-21T23:36:26;4.30;;;1.13;;
71387;SDS011;59201;59.902;10.520;2022-08-21T23:39:19;7.13;;;1.20;;
71387;SDS011;59201;59.902;10.520;2022-08-21T23:44:31;5.13;;;1.30;;
71387;SDS011;59201;59.902;10.520;2022-08-21T23:47:09;4.10;;;1.25;;
